Time;durP1;ratioP1;P1;durP2;ratioP2;P2;SDS_P1;SDS_P2;PMS_P1;PMS_P2;Temp;Humidity;BMP_temperature;BMP_pressure;BME280_temperature;BME280_humidity;BME280_pressure;Samples;Min_cycle;Max_cycle;Signal;HPM_P1;HPM_P2
2022/05/06 00:01:37;;;;;;;6.00;3.97;;;14.90;96.30;;;;;;4990697;28;20120;-65
2022/05/06 00:04:04;;;;;;;7.07;4.80;;;14.90;96.20;;;;;;4990524;28;20039;-65
2022/05/06 00:06:30;;;;;;;9.70;3.83;;;14.90;96.20;;;;;;4992434;28;20030;-64
2022/05/06 00:08:57;;;;;;;7.03;3.35;;;14.80;96.10;;;;;;5006703;28;20026;-65
2022/05/06 00:11:23;;;;;;;5.43;3.40;;;14.80;96.00;;;;;;4992371;28;20026;-65
2022/05/06 00:13:52;;;;;;;6.85;3.03;;;14.70;96.20;;;;;;4990427;28;20522;-65
2022/05/06 00:16:21;;;;;;;12.73;3.03;;;14.60;96.10;;;;;;4992274;28;20042;-65
2022/05/06 00:18:47;;;;;;;9.25;3.13;;;14.60;96.10;;;;;;4991615;28;20125;-65
2022/05/06 00:21:13;;;;;;;6.47;3.85;;;14.60;96.30;;;;;;4991891;28;20121;-64
2022/05/06 00:23:38;;;;;;;4.78;2.53;;;14.50;96.00;;;;;;4991961;28;20033;-64
2022/05/06 00:26:04;;;;;;;6.00;3.00;;;14.50;96.00;;;;;;4990310;28;20030;-65
2022/05/06 00:28:30;;;;;;;6.28;3.08;;;14.50;95.80;;;;;;4990824;28;20153;-65
2022/05/06 00:30:57;;;;;;;3.60;2.53;;;14.50;95.60;;;;;;4989966;28;20419;-64
2022/05/06 00:33:24;;;;;;;5.65;2.92;;;14.50;95.60;;;;;;4990748;28;20030;-63
2022/05/06 00:35:58;;;;;;;8.20;3.88;;;14.50;95.50;;;;;;4991075;28;20098;-63
2022/05/06 00:38:24;;;;;;;7.97;3.05;;;14.60;95.40;;;;;;4991693;28;20117;-64
2022/05/06 00:40:50;;;;;;;7.03;2.80;;;14.50;95.50;;;;;;4991055;28;20390;-64
2022/05/06 00:43:16;;;;;;;4.72;2.40;;;14.50;95.50;;;;;;4992007;28;20031;-65
2022/05/06 00:45:54;;;;;;;8.88;2.85;;;14.50;95.50;;;;;;4992167;28;20033;-64
2022/05/06 00:48:31;;;;;;;4.47;2.47;;;14.40;95.50;;;;;;4992010;28;20026;-65
2022/05/06 00:51:00;;;;;;;11.02;2.80;;;14.40;95.60;;;;;;4991394;28;20042;-65
2022/05/06 00:53:26;;;;;;;6.00;2.97;;;14.40;95.60;;;;;;4990379;28;20064;-64
2022/05/06 00:55:52;;;;;;;5.47;3.65;;;14.30;95.60;;;;;;4990977;28;20022;-65
2022/05/06 00:58:19;;;;;;;9.18;2.88;;;14.30;95.60;;;;;;4990258;28;20030;-65
2022/05/06 01:00:46;;;;;;;5.57;2.90;;;14.20;95.60;;;;;;4991612;28;20046;-65
2022/05/06 01:03:12;;;;;;;9.18;3.28;;;14.30;95.50;;;;;;4990323;28;20049;-65
2022/05/06 01:05:41;;;;;;;4.85;3.67;;;14.30;95.50;;;;;;4990340;28;20464;-65
2022/05/06 01:08:09;;;;;;;3.38;2.70;;;14.20;95.60;;;;;;4989517;28;20134;-65
2022/05/06 01:10:36;;;;;;;3.38;2.50;;;14.10;95.70;;;;;;4991695;28;20046;-65
2022/05/06 01:13:02;;;;;;;4.68;2.60;;;14.10;95.80;;;;;;4990803;28;20072;-65
2022/05/06 01:15:29;;;;;;;10.02;3.58;;;14.10;95.90;;;;;;4990212;28;20423;-65
2022/05/06 01:17:56;;;;;;;6.07;2.85;;;14.20;95.90;;;;;;4989807;28;20495;-64
2022/05/06 01:20:23;;;;;;;10.55;2.95;;;14.10;95.90;;;;;;4991205;28;20070;-65
2022/05/06 01:22:54;;;;;;;5.60;2.67;;;14.00;96.10;;;;;;4991387;28;20064;-65
2022/05/06 01:25:20;;;;;;;6.70;2.65;;;14.10;96.10;;;;;;4991767;28;20030;-64
2022/05/06 01:27:52;;;;;;;12.32;4.18;;;14.10;96.10;;;;;;4991512;28;20034;-64
2022/05/06 01:30:37;;;;;;;7.13;3.60;;;14.00;95.90;;;;;;4990330;28;20134;-64
2022/05/06 01:33:07;;;;;;;4.55;2.80;;;14.00;96.00;;;;;;4991008;28;20038;-64
2022/05/06 01:35:41;;;;;;;5.38;2.70;;;13.90;96.00;;;;;;4989959;28;20082;-65
2022/05/06 01:38:08;;;;;;;5.38;2.55;;;14.00;95.90;;;;;;4989326;28;20137;-65
2022/05/06 01:40:40;;;;;;;3.75;2.33;;;14.00;95.80;;;;;;4991375;28;20101;-64
2022/05/06 01:43:10;;;;;;;9.27;3.35;;;13.90;95.90;;;;;;4990903;28;20118;-64
2022/05/06 01:45:37;;;;;;;4.88;2.40;;;13.90;95.90;;;;;;4991342;28;20472;-65
2022/05/06 01:48:03;;;;;;;6.78;2.75;;;13.90;95.80;;;;;;4989471;28;20121;-64
2022/05/06 01:50:32;;;;;;;5.45;2.80;;;13.80;96.10;;;;;;4991116;28;20034;-65
2022/05/06 01:52:58;;;;;;;7.53;3.10;;;13.70;96.30;;;;;;4989456;28;20054;-65
2022/05/06 01:55:24;;;;;;;5.63;3.65;;;13.70;96.30;;;;;;4991201;28;20035;-65
2022/05/06 01:57:50;;;;;;;5.43;2.88;;;13.60;96.30;;;;;;4990409;28;20109;-69
2022/05/06 02:00:16;;;;;;;4.88;3.20;;;13.60;96.30;;;;;;4991124;28;20030;-65
2022/05/06 02:02:41;;;;;;;6.30;2.53;;;13.50;96.50;;;;;;4991295;28;20042;-65
2022/05/06 02:05:17;;;;;;;4.80;2.47;;;13.60;96.30;;;;;;4989050;28;20018;-65
2022/05/06 02:07:43;;;;;;;4.53;2.53;;;13.50;96.40;;;;;;4989579;28;20031;-64
2022/05/06 02:10:09;;;;;;;6.10;2.33;;;13.40;96.30;;;;;;4990391;28;20113;-65
2022/05/06 02:12:35;;;;;;;5.53;2.40;;;13.40;96.30;;;;;;4991014;28;20030;-64
2022/05/06 02:15:00;;;;;;;6.75;2.88;;;13.40;96.30;;;;;;4989131;28;20467;-64
2022/05/06 02:17:26;;;;;;;5.90;2.72;;;13.30;96.50;;;;;;4994321;28;20061;-65
2022/05/06 02:19:52;;;;;;;2.97;2.28;;;13.40;96.40;;;;;;4993471;28;20046;-65
2022/05/06 02:22:17;;;;;;;4.78;2.53;;;13.40;96.30;;;;;;4994636;28;20113;-65
2022/05/06 02:24:43;;;;;;;4.90;2.42;;;13.40;96.30;;;;;;4993270;28;20035;-64
2022/05/06 02:27:12;;;;;;;4.10;2.60;;;13.40;96.20;;;;;;4992320;28;20022;-65
2022/05/06 02:33:12;;;;;;;5.93;2.20;;;13.40;96.00;;;;;;4993222;28;20022;-64
2022/05/06 02:35:13;;;;;;;3.17;2.33;;;13.30;96.10;;;;;;4993734;28;20119;-65
2022/05/06 02:37:40;;;;;;;11.63;3.10;;;13.30;96.10;;;;;;4992741;28;20125;-65
2022/05/06 02:40:07;;;;;;;5.13;2.70;;;13.30;96.20;;;;;;4993852;28;20027;-64
2022/05/06 02:42:33;;;;;;;6.88;2.60;;;13.30;96.20;;;;;;4994382;28;20030;-65
2022/05/06 02:44:58;;;;;;;5.15;2.20;;;13.20;96.20;;;;;;4993346;28;20053;-64
2022/05/06 02:47:24;;;;;;;5.47;2.85;;;13.30;96.20;;;;;;4994046;28;20414;-65
2022/05/06 02:49:49;;;;;;;3.22;2.22;;;13.30;96.20;;;;;;4993565;28;20117;-63
2022/05/06 02:52:15;;;;;;;4.63;2.58;;;13.30;96.10;;;;;;4991746;28;20034;-64
2022/05/06 02:54:41;;;;;;;3.25;2.30;;;13.20;96.20;;;;;;4993634;28;20030;-65
2022/05/06 02:57:06;;;;;;;4.78;2.75;;;13.20;96.00;;;;;;4992011;28;20032;-65
2022/05/06 02:59:32;;;;;;;5.00;2.17;;;13.30;96.10;;;;;;4994193;28;20030;-65
2022/05/06 03:01:58;;;;;;;8.30;3.10;;;13.20;96.00;;;;;;4991982;28;20411;-66
2022/05/06 03:04:23;;;;;;;4.15;2.80;;;13.30;95.90;;;;;;4993809;28;20427;-65
2022/05/06 03:06:49;;;;;;;6.95;2.85;;;13.30;95.80;;;;;;4992586;28;20338;-65
2022/05/06 03:09:15;;;;;;;3.72;2.42;;;13.30;95.80;;;;;;4991765;28;20026;-64
2022/05/06 03:11:40;;;;;;;5.07;3.30;;;13.20;96.00;;;;;;4993635;28;20040;-65
2022/05/06 03:14:06;;;;;;;6.32;2.78;;;13.20;95.90;;;;;;4991951;28;20088;-64
2022/05/06 03:16:31;;;;;;;5.50;3.00;;;13.30;95.60;;;;;;4993803;28;20026;-65
2022/05/06 03:19:00;;;;;;;6.70;2.80;;;13.20;95.80;;;;;;4992587;28;20054;-64
2022/05/06 03:21:26;;;;;;;5.38;2.17;;;13.20;95.70;;;;;;4991971;28;20169;-65
2022/05/06 03:23:52;;;;;;;5.03;2.08;;;13.10;95.90;;;;;;4993200;28;20502;-64
2022/05/06 03:26:18;;;;;;;7.50;3.55;;;13.10;95.90;;;;;;4991244;28;20121;-65
2022/05/06 03:28:44;;;;;;;2.92;2.42;;;13.10;95.80;;;;;;4993146;28;20386;-64
2022/05/06 03:31:12;;;;;;;5.72;2.78;;;13.00;95.90;;;;;;4991310;28;20165;-65
2022/05/06 03:33:38;;;;;;;4.82;2.70;;;13.00;95.90;;;;;;4991808;28;20062;-64
2022/05/06 03:36:04;;;;;;;4.40;2.35;;;13.00;96.10;;;;;;4992497;28;20108;-65
2022/05/06 03:38:30;;;;;;;3.60;2.20;;;13.00;95.90;;;;;;4993023;28;20030;-65
2022/05/06 03:40:56;;;;;;;5.28;2.33;;;12.90;96.10;;;;;;4992767;28;20032;-74
2022/05/06 03:43:21;;;;;;;6.35;2.15;;;12.90;96.00;;;;;;4991516;28;20033;-65
2022/05/06 03:45:47;;;;;;;5.15;2.20;;;13.00;95.80;;;;;;4993010;28;20026;-64
2022/05/06 03:48:13;;;;;;;5.47;2.40;;;12.90;95.90;;;;;;4990811;28;20061;-65
2022/05/06 03:53:24;;;;;;;5.95;2.00;;;12.90;95.80;;;;;;4992996;28;20370;-64
2022/05/06 03:55:50;;;;;;;3.42;2.28;;;12.90;95.80;;;;;;4992862;28;20125;-65
2022/05/06 03:58:15;;;;;;;3.20;2.03;;;12.90;95.70;;;;;;4990744;28;20132;-65
2022/05/06 04:00:41;;;;;;;4.43;2.22;;;12.90;95.70;;;;;;4992429;28;20037;-63
2022/05/06 04:03:07;;;;;;;5.53;2.90;;;12.90;95.60;;;;;;4992017;28;20349;-65
2022/05/06 04:05:34;;;;;;;5.63;2.90;;;12.90;95.50;;;;;;4992648;28;20037;-65
2022/05/06 04:08:00;;;;;;;4.47;2.40;;;12.90;95.50;;;;;;4990623;28;20030;-66
2022/05/06 04:10:26;;;;;;;6.65;2.35;;;12.90;95.60;;;;;;4992698;28;20137;-65
2022/05/06 04:12:53;;;;;;;6.13;2.58;;;12.90;95.70;;;;;;4992510;28;20038;-66
2022/05/06 04:15:19;;;;;;;5.43;2.53;;;12.90;95.60;;;;;;4990682;28;20085;-65
2022/05/06 04:17:45;;;;;;;3.95;2.20;;;12.90;95.70;;;;;;4991123;28;20058;-65
2022/05/06 04:25:41;;;;;;;2.50;2.00;;;12.70;95.90;;;;;;4992119;28;20205;-65
2022/05/06 04:28:07;;;;;;;4.00;2.30;;;12.70;95.90;;;;;;4990386;28;20109;-65
2022/05/06 04:30:34;;;;;;;3.88;1.92;;;12.80;95.80;;;;;;4992288;28;20117;-65
2022/05/06 04:32:59;;;;;;;5.72;2.40;;;12.90;95.80;;;;;;4990252;28;20034;-68
2022/05/06 04:35:25;;;;;;;3.40;1.98;;;12.90;95.70;;;;;;4991220;28;20031;-65
2022/05/06 04:37:51;;;;;;;2.92;1.67;;;12.90;95.50;;;;;;4992197;28;20387;-65
2022/05/06 04:40:17;;;;;;;5.25;1.73;;;12.90;95.60;;;;;;4989786;28;20034;-66
2022/05/06 04:42:45;;;;;;;6.30;2.30;;;13.00;95.60;;;;;;4992113;28;20023;-65
2022/05/06 04:45:11;;;;;;;9.73;2.60;;;13.00;95.50;;;;;;4991294;28;20030;-65
2022/05/06 04:47:37;;;;;;;4.57;2.13;;;13.00;95.40;;;;;;4991905;28;20514;-66
2022/05/06 04:50:04;;;;;;;6.43;2.13;;;13.00;95.60;;;;;;4990998;28;20192;-66
2022/05/06 04:52:31;;;;;;;4.38;2.33;;;13.00;95.60;;;;;;4991577;28;20041;-64
2022/05/06 04:54:57;;;;;;;2.65;1.90;;;13.00;95.40;;;;;;4991755;28;20061;-65
2022/05/06 04:57:23;;;;;;;7.60;2.83;;;13.00;95.40;;;;;;4991469;28;20147;-65
2022/05/06 04:59:48;;;;;;;3.88;2.30;;;13.20;95.30;;;;;;4993624;28;20030;-66
2022/05/06 05:02:18;;;;;;;3.13;1.80;;;13.20;95.30;;;;;;5009125;28;20034;-65
2022/05/06 05:04:44;;;;;;;5.32;2.10;;;13.20;95.30;;;;;;5009936;28;20030;-65
2022/05/06 05:07:10;;;;;;;8.43;2.22;;;13.20;95.10;;;;;;5010391;28;20030;-65
2022/05/06 05:09:36;;;;;;;3.10;2.28;;;13.30;95.10;;;;;;5010969;28;20033;-67
2022/05/06 05:12:03;;;;;;;8.13;2.53;;;13.30;95.00;;;;;;5004523;28;20041;-66
2022/05/06 05:14:29;;;;;;;6.68;1.83;;;13.10;95.30;;;;;;5004131;28;20071;-65
2022/05/06 05:16:54;;;;;;;3.65;2.05;;;13.10;95.30;;;;;;5008938;28;20049;-66
2022/05/06 05:19:20;;;;;;;7.55;2.53;;;13.80;99.90;;;;;;5008532;28;20054;-66
2022/05/06 05:21:47;;;;;;;10.20;1.88;;;14.30;99.80;;;;;;5011043;28;20416;-68
2022/05/06 05:24:13;;;;;;;2.15;1.60;;;15.00;99.60;;;;;;5008841;28;20328;-59
2022/05/06 05:26:38;;;;;;;4.25;1.70;;;15.60;99.90;;;;;;5010836;28;20025;-66
2022/05/06 05:29:04;;;;;;;4.00;1.63;;;16.20;99.10;;;;;;5008949;28;20513;-65
2022/05/06 05:31:31;;;;;;;3.50;1.90;;;15.70;94.90;;;;;;5006581;28;20026;-67
2022/05/06 05:33:56;;;;;;;5.20;2.25;;;14.80;94.00;;;;;;5002231;28;20034;-65
2022/05/06 05:36:22;;;;;;;7.90;1.98;;;14.60;94.30;;;;;;5008063;28;20229;-66
2022/05/06 05:38:47;;;;;;;3.80;2.17;;;14.20;95.00;;;;;;5011188;28;20034;-67
2022/05/06 05:41:13;;;;;;;3.15;1.95;;;14.20;95.30;;;;;;5009849;28;20140;-66
2022/05/06 05:49:07;;;;;;;3.47;1.83;;;14.30;95.00;;;;;;5007326;28;20107;-66
2022/05/06 05:51:33;;;;;;;8.05;2.17;;;14.20;94.90;;;;;;5002318;28;20041;-67
2022/05/06 05:53:59;;;;;;;3.38;1.98;;;14.30;94.50;;;;;;5014134;28;20022;-65
2022/05/06 05:56:25;;;;;;;4.20;1.90;;;14.10;94.70;;;;;;5013524;28;20478;-66
2022/05/06 05:58:51;;;;;;;10.13;2.05;;;14.30;94.80;;;;;;5012817;28;20029;-71
2022/05/06 06:01:18;;;;;;;6.25;2.13;;;14.30;94.60;;;;;;5012158;28;20466;-66
2022/05/06 06:03:43;;;;;;;6.60;2.03;;;14.30;94.60;;;;;;5014014;28;20148;-65
2022/05/06 06:06:10;;;;;;;7.00;2.00;;;14.30;94.90;;;;;;5013268;28;20479;-64
2022/05/06 06:08:35;;;;;;;4.40;2.47;;;14.30;94.50;;;;;;5012628;28;20027;-65
2022/05/06 06:11:02;;;;;;;5.38;1.83;;;14.30;94.90;;;;;;5013923;28;20366;-65
2022/05/06 06:13:30;;;;;;;4.82;2.00;;;14.50;94.80;;;;;;5011733;28;20045;-65
2022/05/06 06:15:56;;;;;;;4.20;2.00;;;14.20;94.60;;;;;;5013928;28;20033;-65
2022/05/06 06:18:26;;;;;;;4.18;2.25;;;14.40;94.50;;;;;;5013246;28;20196;-66
2022/05/06 06:20:56;;;;;;;4.07;2.30;;;14.20;94.90;;;;;;5012586;28;20367;-65
2022/05/06 06:23:22;;;;;;;5.03;2.10;;;14.30;95.10;;;;;;5011602;28;20073;-67
2022/05/06 06:25:48;;;;;;;4.82;2.58;;;14.40;95.10;;;;;;5012110;28;20025;-65
2022/05/06 06:28:14;;;;;;;12.63;2.72;;;14.50;94.80;;;;;;5012051;28;20022;-66
2022/05/06 06:30:40;;;;;;;5.00;2.50;;;15.10;99.90;;;;;;5012094;28;20030;-66
2022/05/06 06:33:09;;;;;;;9.38;2.35;;;15.60;99.00;;;;;;5010892;28;20030;-74
2022/05/06 06:35:35;;;;;;;7.25;2.25;;;15.80;96.90;;;;;;5008604;28;20034;-66
2022/05/06 06:38:01;;;;;;;9.00;2.33;;;16.10;99.10;;;;;;5004940;28;20435;-66
2022/05/06 06:40:27;;;;;;;6.68;3.13;;;16.40;99.90;;;;;;5010935;28;20467;-67
2022/05/06 06:42:52;;;;;;;7.28;2.00;;;16.50;99.90;;;;;;5011887;28;20030;-65
2022/05/06 06:45:18;;;;;;;6.55;2.90;;;16.80;99.90;;;;;;5013062;28;20081;-67
2022/05/06 06:47:44;;;;;;;7.15;2.47;;;16.90;99.90;;;;;;5013513;28;20427;-66
2022/05/06 06:50:10;;;;;;;5.05;2.17;;;17.00;99.90;;;;;;5011550;28;20046;-68
2022/05/06 06:52:36;;;;;;;7.28;2.30;;;17.10;97.20;;;;;;5011597;28;20034;-66
2022/05/06 06:55:02;;;;;;;7.97;2.25;;;17.30;99.80;;;;;;5011021;28;20418;-66
2022/05/06 06:57:31;;;;;;;13.95;1.92;;;17.30;99.40;;;;;;5009064;28;20348;-67
2022/05/06 06:59:56;;;;;;;2.80;1.63;;;17.80;96.70;;;;;;5005150;28;20468;-66
2022/05/06 07:02:22;;;;;;;3.72;1.90;;;17.50;94.40;;;;;;5011135;28;20105;-66
2022/05/06 07:04:48;;;;;;;4.78;1.92;;;17.60;96.60;;;;;;5012615;28;20025;-66
2022/05/06 07:12:42;;;;;;;4.57;1.83;;;17.50;94.10;;;;;;5012142;28;20125;-67
2022/05/06 07:15:08;;;;;;;4.82;2.22;;;17.40;93.70;;;;;;5008134;28;20026;-67
2022/05/06 07:17:34;;;;;;;5.85;2.88;;;17.40;93.50;;;;;;5007355;28;20041;-66
2022/05/06 07:20:00;;;;;;;2.83;1.73;;;17.60;93.20;;;;;;5005403;28;20057;-65
2022/05/06 07:22:26;;;;;;;3.15;1.70;;;17.70;93.00;;;;;;4993299;28;20060;-67
2022/05/06 07:24:51;;;;;;;3.20;1.80;;;17.90;92.70;;;;;;5011025;28;20033;-67
2022/05/06 07:27:18;;;;;;;17.10;1.98;;;18.10;92.30;;;;;;5010928;28;20061;-68
2022/05/06 07:29:44;;;;;;;6.53;1.80;;;18.20;99.90;;;;;;5007288;28;20029;-68
2022/05/06 07:32:10;;;;;;;6.38;1.90;;;19.10;99.90;;;;;;5006072;28;20034;-72
2022/05/06 07:34:36;;;;;;;5.50;1.60;;;19.50;93.30;;;;;;4992582;28;20046;-68
2022/05/06 07:37:02;;;;;;;5.57;1.65;;;19.80;97.20;;;;;;4992368;28;20027;-68
2022/05/06 07:39:28;;;;;;;6.20;1.67;;;20.30;97.00;;;;;;5004151;28;20388;-68
2022/05/06 07:41:54;;;;;;;4.63;1.20;;;20.60;96.50;;;;;;4999842;28;20124;-68
2022/05/06 07:44:19;;;;;;;6.15;1.38;;;20.80;95.00;;;;;;5010485;28;20033;-67
2022/05/06 07:46:45;;;;;;;26.08;2.15;;;21.00;92.70;;;;;;5007198;28;20443;-66
2022/05/06 07:49:11;;;;;;;3.08;1.40;;;20.90;91.30;;;;;;5016831;28;20026;-68
2022/05/06 07:51:38;;;;;;;10.80;2.15;;;21.00;90.40;;;;;;5014163;28;20037;-68
2022/05/06 07:54:04;;;;;;;10.23;1.70;;;21.00;86.50;;;;;;5018557;28;20464;-66
2022/05/06 07:56:30;;;;;;;3.80;1.55;;;20.70;86.70;;;;;;4993860;28;20026;-68
2022/05/06 07:59:00;;;;;;;4.15;1.70;;;20.50;85.90;;;;;;5010094;28;20029;-67
2022/05/06 08:06:54;;;;;;;3.13;1.77;;;20.90;85.20;;;;;;5012165;28;20041;-69
2022/05/06 08:09:20;;;;;;;5.45;1.60;;;21.10;86.50;;;;;;5010793;28;20355;-70
2022/05/06 08:11:47;;;;;;;3.53;2.00;;;21.40;82.00;;;;;;5011564;28;20030;-68
2022/05/06 08:14:14;;;;;;;2.67;1.30;;;21.50;83.30;;;;;;5010173;28;20034;-70
2022/05/06 08:16:40;;;;;;;4.18;1.77;;;21.80;80.90;;;;;;5010437;28;20357;-69
2022/05/06 08:19:11;;;;;;;3.05;1.13;;;21.40;79.50;;;;;;5009697;28;20168;-69
2022/05/06 08:21:37;;;;;;;2.10;1.00;;;21.60;84.00;;;;;;5010426;28;20525;-68
2022/05/06 08:24:03;;;;;;;6.95;1.52;;;21.80;81.30;;;;;;5011965;28;20057;-69
2022/05/06 08:26:29;;;;;;;3.05;1.17;;;22.00;78.50;;;;;;5010370;28;20471;-69
2022/05/06 08:28:55;;;;;;;45.85;6.70;;;21.80;79.50;;;;;;5009769;28;20033;-69
2022/05/06 08:31:21;;;;;;;2.00;1.23;;;22.00;83.50;;;;;;5009232;28;20059;-70
2022/05/06 08:33:46;;;;;;;3.60;1.10;;;22.20;78.90;;;;;;5009828;28;20117;-70
2022/05/06 08:36:13;;;;;;;8.82;1.83;;;22.60;81.90;;;;;;5011371;28;20390;-70
2022/05/06 08:38:39;;;;;;;6.28;1.90;;;22.70;80.00;;;;;;5010135;28;20028;-71
2022/05/06 08:41:05;;;;;;;2.10;1.45;;;22.90;80.10;;;;;;4993180;28;20030;-69
2022/05/06 08:43:32;;;;;;;3.78;2.05;;;22.80;77.70;;;;;;5009172;28;20051;-69
2022/05/06 08:51:35;;;;;;;5.53;2.53;;;23.00;76.50;;;;;;5010249;28;20080;-70
2022/05/06 08:54:01;;;;;;;4.32;1.60;;;23.10;76.60;;;;;;5009365;28;20049;-69
2022/05/06 08:56:27;;;;;;;3.50;2.30;;;23.30;76.20;;;;;;5008564;28;20032;-69
2022/05/06 08:58:54;;;;;;;5.53;1.48;;;23.50;76.70;;;;;;5011275;28;20040;-69
2022/05/06 09:01:21;;;;;;;6.05;3.17;;;23.60;74.60;;;;;;5010338;28;20026;-69
2022/05/06 09:03:48;;;;;;;4.13;0.90;;;23.70;73.00;;;;;;5009311;28;20046;-69
2022/05/06 09:06:29;;;;;;;2.03;1.60;;;23.70;72.00;;;;;;5009761;28;20033;-69
2022/05/06 09:08:59;;;;;;;9.57;1.70;;;23.70;72.90;;;;;;5010929;28;20034;-69
2022/05/06 09:17:21;;;;;;;2.30;0.90;;;24.50;71.90;;;;;;5011189;28;20029;-70
2022/05/06 09:19:47;;;;;;;2.72;1.50;;;24.70;70.80;;;;;;5010606;28;20054;-71
2022/05/06 09:22:14;;;;;;;8.00;3.63;;;24.90;68.20;;;;;;5009682;28;20064;-69
2022/05/06 09:24:47;;;;;;;5.40;1.60;;;24.50;69.60;;;;;;5009547;28;20030;-72
2022/05/06 09:27:15;;;;;;;6.35;1.52;;;24.80;69.80;;;;;;5013138;28;20129;-69
2022/05/06 09:29:51;;;;;;;3.33;1.42;;;25.10;70.40;;;;;;5013854;28;20030;-70
2022/05/06 09:32:27;;;;;;;4.40;1.90;;;25.10;69.30;;;;;;5012580;28;20337;-71
2022/05/06 09:35:13;;;;;;;5.22;1.67;;;24.90;67.40;;;;;;5013346;28;20057;-70
2022/05/06 09:37:42;;;;;;;3.97;1.63;;;25.20;67.60;;;;;;5012270;28;20167;-71
2022/05/06 09:40:10;;;;;;;13.25;9.65;;;25.20;67.30;;;;;;5012400;28;20113;-70
2022/05/06 09:42:57;;;;;;;9.63;6.22;;;25.10;67.90;;;;;;5011691;28;20439;-70
2022/05/06 09:45:37;;;;;;;2.13;1.10;;;25.20;68.50;;;;;;5012541;28;20451;-69
2022/05/06 09:48:04;;;;;;;1.57;0.83;;;25.80;66.10;;;;;;5012757;28;20040;-69
2022/05/06 09:50:45;;;;;;;5.82;2.63;;;25.80;64.60;;;;;;5009962;28;20108;-71
2022/05/06 09:53:12;;;;;;;3.00;1.13;;;25.00;63.90;;;;;;4991969;28;20034;-70
2022/05/06 09:55:46;;;;;;;6.13;1.35;;;25.20;65.60;;;;;;5004281;28;20096;-69
2022/05/06 09:58:13;;;;;;;5.68;1.70;;;25.70;64.80;;;;;;4992945;28;20352;-69
2022/05/06 10:00:39;;;;;;;2.72;1.40;;;26.20;64.80;;;;;;4998617;28;20120;-69
2022/05/06 10:03:06;;;;;;;6.00;2.25;;;26.40;63.80;;;;;;5014442;28;20033;-69
2022/05/06 10:05:36;;;;;;;10.40;4.00;;;26.30;64.50;;;;;;5013624;28;20499;-70
2022/05/06 10:08:11;;;;;;;2.30;1.70;;;26.10;64.40;;;;;;5013072;28;20037;-70
2022/05/06 10:10:41;;;;;;;2.47;1.70;;;26.40;64.10;;;;;;5013472;28;20425;-69
2022/05/06 10:13:31;;;;;;;2.30;1.52;;;26.20;65.10;;;;;;4997907;28;20058;-70
2022/05/06 10:15:58;;;;;;;3.13;2.17;;;26.00;62.90;;;;;;5008805;28;20352;-67
2022/05/06 10:18:50;;;;;;;2.88;0.70;;;26.20;64.40;;;;;;5009812;28;20382;-68
2022/05/06 10:21:17;;;;;;;6.68;3.03;;;26.70;61.90;;;;;;5008187;28;20360;-68
2022/05/06 10:23:56;;;;;;;9.10;3.67;;;25.80;63.90;;;;;;5008076;28;20026;-68
2022/05/06 10:26:33;;;;;;;4.72;2.70;;;26.20;64.30;;;;;;5004993;28;20057;-69
2022/05/06 10:34:30;;;;;;;12.75;2.70;;;25.80;63.60;;;;;;5011758;28;20099;-68
2022/05/06 10:37:00;;;;;;;1.50;1.08;;;26.10;62.00;;;;;;5005500;28;20038;-68
2022/05/06 10:39:36;;;;;;;3.33;1.37;;;25.10;62.90;;;;;;5012303;28;20464;-68
2022/05/06 10:42:07;;;;;;;3.00;2.17;;;25.00;63.20;;;;;;5010297;28;20057;-69
2022/05/06 10:44:34;;;;;;;5.63;3.22;;;25.80;63.50;;;;;;5010536;28;20066;-67
2022/05/06 10:47:00;;;;;;;5.53;1.52;;;26.20;63.40;;;;;;5012525;28;20336;-68
2022/05/06 10:49:34;;;;;;;6.32;3.30;;;27.00;63.50;;;;;;5010703;28;20128;-68
2022/05/06 10:52:15;;;;;;;6.50;3.35;;;27.10;62.80;;;;;;5011641;28;20383;-68
2022/05/06 10:54:48;;;;;;;9.55;3.58;;;26.80;63.30;;;;;;5006728;28;20231;-69
2022/05/06 10:57:16;;;;;;;16.92;8.10;;;27.50;64.60;;;;;;5008556;28;20038;-67
2022/05/06 10:59:57;;;;;;;8.10;2.80;;;27.40;65.10;;;;;;5007050;28;20305;-67
2022/05/06 11:02:25;;;;;;;6.45;2.75;;;27.60;63.90;;;;;;5012065;28;20060;-73
2022/05/06 11:04:54;;;;;;;24.30;3.42;;;27.30;65.10;;;;;;5004980;28;20124;-74
2022/05/06 11:07:20;;;;;;;4.55;1.98;;;27.50;62.90;;;;;;5011929;28;20026;-73
2022/05/06 11:09:47;;;;;;;2.38;1.35;;;27.90;63.40;;;;;;5010770;28;20034;-72
2022/05/06 11:12:39;;;;;;;8.38;3.75;;;27.40;62.80;;;;;;5004703;28;20061;-73
2022/05/06 11:15:16;;;;;;;9.73;3.45;;;27.60;62.40;;;;;;4998931;28;20104;-73
2022/05/06 11:17:43;;;;;;;5.75;3.50;;;27.50;61.70;;;;;;5011913;28;20453;-74
2022/05/06 11:20:26;;;;;;;9.60;6.63;;;27.70;63.10;;;;;;5007638;28;20498;-72
2022/05/06 11:23:18;;;;;;;8.00;5.07;;;27.90;63.20;;;;;;5012020;28;20100;-73
2022/05/06 11:25:46;;;;;;;8.50;3.80;;;28.20;61.60;;;;;;4985527;28;20110;-72
2022/05/06 11:28:13;;;;;;;9.52;5.15;;;27.60;63.80;;;;;;4975995;28;20038;-73
2022/05/06 11:30:44;;;;;;;4.82;2.15;;;27.80;60.60;;;;;;4989128;28;20053;-73
2022/05/06 11:33:26;;;;;;;4.95;3.30;;;27.60;63.00;;;;;;4971198;28;20065;-73
2022/05/06 11:36:01;;;;;;;3.83;3.35;;;27.40;60.80;;;;;;4971204;28;20090;-73
2022/05/06 11:38:35;;;;;;;7.53;2.55;;;27.10;62.40;;;;;;4956018;28;20509;-72
2022/05/06 11:41:11;;;;;;;4.68;2.55;;;27.40;61.50;;;;;;4966016;28;20060;-73
2022/05/06 11:43:38;;;;;;;9.88;7.55;;;27.60;61.90;;;;;;4971355;28;20468;-75
2022/05/06 11:48:48;;;;;;;4.18;2.08;;;27.60;61.40;;;;;;4989505;28;20040;-72
2022/05/06 11:51:17;;;;;;;4.93;2.00;;;27.80;60.20;;;;;;4989528;28;20116;-73
2022/05/06 11:53:44;;;;;;;3.13;2.30;;;27.90;60.10;;;;;;4988641;28;20157;-71
2022/05/06 11:56:10;;;;;;;6.97;4.63;;;27.70;59.70;;;;;;4988870;28;20066;-74
2022/05/06 11:58:37;;;;;;;2.35;1.40;;;28.00;60.40;;;;;;4988894;28;20152;-56
2022/05/06 12:01:03;;;;;;;7.00;2.40;;;28.10;60.10;;;;;;4973132;28;20037;-57
2022/05/06 12:03:29;;;;;;;3.28;1.58;;;28.00;64.60;;;;;;5006354;28;20066;-57
2022/05/06 12:06:04;;;;;;;6.13;2.00;;;27.80;60.90;;;;;;5009644;28;20124;-56
2022/05/06 12:08:32;;;;;;;9.73;3.78;;;27.40;62.20;;;;;;5011161;28;20101;-55
2022/05/06 12:10:59;;;;;;;8.98;5.10;;;27.60;61.20;;;;;;5011325;28;20076;-57
2022/05/06 12:13:33;;;;;;;8.40;4.32;;;27.70;61.70;;;;;;5007531;28;20379;-57
2022/05/06 12:16:11;;;;;;;14.13;8.60;;;27.50;59.50;;;;;;5007781;28;20026;-57
2022/05/06 12:18:37;;;;;;;7.55;4.57;;;27.20;60.70;;;;;;5009574;28;20053;-56
2022/05/06 12:21:22;;;;;;;5.50;2.20;;;27.30;59.50;;;;;;5009229;28;20335;-57
2022/05/06 12:23:57;;;;;;;4.80;1.63;;;27.20;60.60;;;;;;5008645;28;20038;-56
2022/05/06 12:26:32;;;;;;;10.02;1.88;;;26.90;61.40;;;;;;5001245;28;20034;-57
2022/05/06 12:28:58;;;;;;;3.30;2.10;;;26.80;60.90;;;;;;5010422;28;20030;-56
2022/05/06 12:31:30;;;;;;;5.07;1.52;;;26.90;63.40;;;;;;5010581;28;20426;-57
2022/05/06 12:34:09;;;;;;;8.30;2.05;;;26.80;59.20;;;;;;5008473;28;20038;-57
2022/05/06 12:36:36;;;;;;;5.70;1.98;;;26.10;64.20;;;;;;5008291;28;20034;-57
2022/05/06 12:39:19;;;;;;;8.85;2.40;;;26.30;60.80;;;;;;5009046;28;20034;-58
2022/05/06 12:41:46;;;;;;;5.90;1.65;;;26.20;60.60;;;;;;5005929;28;20038;-56
2022/05/06 12:44:18;;;;;;;6.20;2.00;;;25.90;63.20;;;;;;5009294;28;20026;-56
2022/05/06 12:46:45;;;;;;;1.50;1.13;;;25.80;61.60;;;;;;5009983;28;20033;-60
2022/05/06 12:51:55;;;;;;;5.43;1.00;;;25.20;61.40;;;;;;5010185;28;20064;-56
2022/05/06 12:54:22;;;;;;;3.17;1.33;;;25.70;62.10;;;;;;5009829;28;20053;-56
2022/05/06 12:56:48;;;;;;;9.85;4.40;;;26.00;61.40;;;;;;5008943;28;20043;-58
2022/05/06 12:59:14;;;;;;;2.13;1.25;;;26.30;62.20;;;;;;5009329;28;20029;-57
2022/05/06 13:01:40;;;;;;;5.35;2.28;;;26.40;61.30;;;;;;5008519;28;20103;-57
2022/05/06 13:04:06;;;;;;;3.88;1.67;;;26.60;62.30;;;;;;5009618;28;20022;-57
2022/05/06 13:06:32;;;;;;;4.43;1.20;;;26.50;59.90;;;;;;5008858;28;20064;-58
2022/05/06 13:08:59;;;;;;;3.08;0.95;;;26.60;61.50;;;;;;5010421;28;20113;-57
2022/05/06 13:11:25;;;;;;;3.60;2.63;;;26.70;62.10;;;;;;5009376;28;20423;-57
2022/05/06 13:13:51;;;;;;;1.48;0.93;;;26.80;60.30;;;;;;5010106;28;20041;-57
2022/05/06 13:16:17;;;;;;;5.05;1.20;;;26.90;61.20;;;;;;5009857;28;20030;-56
2022/05/06 13:18:43;;;;;;;2.58;0.68;;;27.00;62.00;;;;;;5008797;28;20116;-56
2022/05/06 13:21:08;;;;;;;2.30;0.80;;;26.60;59.50;;;;;;5009204;28;20038;-58
2022/05/06 13:23:35;;;;;;;2.10;0.82;;;26.20;59.60;;;;;;5008357;28;20456;-57
2022/05/06 13:26:01;;;;;;;4.82;1.50;;;26.30;60.20;;;;;;5010460;28;20030;-57
2022/05/06 13:28:27;;;;;;;7.28;2.85;;;26.50;59.80;;;;;;5009362;28;20088;-71
2022/05/06 13:30:53;;;;;;;4.15;1.50;;;26.70;59.60;;;;;;5008917;28;20034;-72
2022/05/06 13:33:18;;;;;;;5.40;1.58;;;26.60;59.70;;;;;;5010307;28;20090;-74
2022/05/06 13:35:44;;;;;;;2.40;1.67;;;26.20;59.30;;;;;;5009645;28;20042;-73
2022/05/06 13:38:10;;;;;;;6.35;2.10;;;26.30;60.40;;;;;;5009132;28;20416;-73
2022/05/06 13:40:35;;;;;;;3.42;0.73;;;26.30;60.00;;;;;;5008825;28;20431;-72